createdAt,value
2017-08-24T00:00:18.906Z,26.76
2017-08-24T00:01:19.236Z,26.73
2017-08-24T00:02:18.974Z,26.71
2017-08-24T00:03:19.015Z,26.68
2017-08-24T00:04:19.064Z,26.65
2017-08-24T00:05:19.186Z,26.57
2017-08-24T00:06:19.130Z,26.66
2017-08-24T00:07:19.167Z,26.61
2017-08-24T00:08:19.510Z,26.60
2017-08-24T00:09:19.240Z,26.59
2017-08-24T00:10:19.280Z,26.60
2017-08-24T00:11:19.369Z,26.64
2017-08-24T00:12:19.359Z,26.54
2017-08-24T00:13:19.488Z,26.54
2017-08-24T00:14:19.427Z,26.53
2017-08-24T00:15:19.766Z,26.54
2017-08-24T00:16:19.515Z,26.49
2017-08-24T00:17:19.541Z,26.49
2017-08-24T00:18:19.585Z,26.44
2017-08-24T00:19:19.680Z,26.47
2017-08-24T00:20:19.656Z,26.39
2017-08-24T00:21:19.693Z,26.42
2017-08-24T00:22:20.028Z,26.34
2017-08-24T00:23:19.765Z,26.39
2017-08-24T00:24:20.001Z,26.31
2017-08-24T00:25:19.841Z,26.19
2017-08-24T00:26:19.875Z,26.29
2017-08-24T00:27:19.929Z,26.31
2017-08-24T00:28:19.950Z,26.28
2017-08-24T00:29:20.288Z,26.32
2017-08-24T00:30:20.126Z,26.29
2017-08-24T00:31:20.062Z,26.29
2017-08-24T00:32:20.101Z,26.23
2017-08-24T00:33:20.138Z,26.24
2017-08-24T00:34:20.179Z,26.23
2017-08-24T00:35:20.516Z,26.23
2017-08-24T00:36:20.547Z,26.20
2017-08-24T00:37:20.290Z,26.13
2017-08-24T00:38:20.333Z,26.21
2017-08-24T00:39:20.366Z,26.17
2017-08-24T00:40:20.397Z,26.08
2017-08-24T00:41:20.485Z,26.13
2017-08-24T00:42:20.473Z,26.00
2017-08-24T00:43:20.823Z,25.96
2017-08-24T00:44:20.749Z,26.03
2017-08-24T00:45:20.582Z,25.97
2017-08-24T00:46:20.635Z,25.94
2017-08-24T00:47:20.669Z,25.83
2017-08-24T00:48:20.697Z,25.78
2017-08-24T00:49:20.732Z,25.75
2017-08-24T00:50:21.123Z,25.75
2017-08-24T00:51:20.847Z,25.69
2017-08-24T00:52:20.838Z,25.69
2017-08-24T00:53:20.893Z,25.60
2017-08-24T00:54:20.918Z,25.54
2017-08-24T00:55:21.010Z,25.57
2017-08-24T00:56:21.155Z,25.51
2017-08-24T00:57:21.327Z,25.57
2017-08-24T00:58:21.072Z,25.46
2017-08-24T00:59:21.096Z,25.42
2017-08-24T01:00:21.136Z,25.41
2017-08-24T01:01:21.278Z,25.38
2017-08-24T01:02:21.209Z,25.22
2017-08-24T01:03:21.253Z,25.30
2017-08-24T01:04:21.581Z,25.20
2017-08-24T01:05:21.345Z,25.19
2017-08-24T01:06:21.354Z,25.09
2017-08-24T01:07:21.445Z,25.16
2017-08-24T01:08:21.425Z,25.04
2017-08-24T01:09:21.468Z,24.98
2017-08-24T01:10:21.802Z,24.84
2017-08-24T01:11:21.551Z,24.68
2017-08-24T01:12:21.566Z,24.64
2017-08-24T01:13:21.608Z,24.46
2017-08-24T01:14:21.645Z,24.55
2017-08-24T01:15:21.675Z,24.37
2017-08-24T01:16:22.069Z,24.34
2017-08-24T01:17:21.756Z,24.23
2017-08-24T01:18:21.791Z,24.29
2017-08-24T01:19:21.818Z,24.29
2017-08-24T01:20:21.863Z,24.24
2017-08-24T01:21:21.889Z,24.19
2017-08-24T01:22:22.279Z,24.29
2017-08-24T01:23:21.971Z,24.29
2017-08-24T01:24:21.999Z,24.26
2017-08-24T01:25:22.040Z,24.19
2017-08-24T01:26:22.081Z,24.29
2017-08-24T01:27:22.318Z,24.26
2017-08-24T01:28:22.450Z,24.34
2017-08-24T01:29:22.187Z,24.26
2017-08-24T01:30:22.229Z,24.27
2017-08-24T01:31:22.253Z,24.29
2017-08-24T01:32:22.287Z,24.18
2017-08-24T01:33:22.522Z,24.23
2017-08-24T01:34:22.687Z,24.21
2017-08-24T01:35:22.394Z,24.21
2017-08-24T01:36:22.434Z,24.24
2017-08-24T01:37:22.470Z,24.18
2017-08-24T01:38:22.498Z,24.24
2017-08-24T01:39:22.785Z,24.21
2017-08-24T01:40:22.870Z,24.21
2017-08-24T01:41:22.611Z,24.19
2017-08-24T01:42:22.696Z,24.30
2017-08-24T01:43:22.680Z,24.27
2017-08-24T01:44:22.718Z,24.19
2017-08-24T01:45:22.749Z,24.21
2017-08-24T01:46:23.092Z,24.24
2017-08-24T01:47:22.884Z,24.21
2017-08-24T01:48:22.859Z,24.23
2017-08-24T01:49:22.898Z,24.23
2017-08-24T01:50:22.941Z,24.21
2017-08-24T01:51:22.967Z,24.19
2017-08-24T01:52:23.367Z,24.15
2017-08-24T01:53:23.042Z,24.14
2017-08-24T01:54:23.080Z,24.15
2017-08-24T01:55:23.111Z,24.12
2017-08-24T01:56:23.147Z,24.18
2017-08-24T01:57:23.229Z,24.04
2017-08-24T01:58:23.569Z,24.09
2017-08-24T01:59:23.252Z,24.06
2017-08-24T02:00:23.287Z,23.97
2017-08-24T02:01:23.327Z,23.97
2017-08-24T02:02:23.365Z,23.96
2017-08-24T02:03:23.458Z,23.94
2017-08-24T02:04:23.736Z,23.90
2017-08-24T02:05:23.487Z,23.97
2017-08-24T02:06:23.505Z,23.84
2017-08-24T02:07:23.545Z,23.93
2017-08-24T02:08:23.783Z,23.96
2017-08-24T02:09:23.665Z,23.89
2017-08-24T02:10:23.948Z,23.89
2017-08-24T02:11:23.682Z,23.89
2017-08-24T02:12:23.746Z,23.84
2017-08-24T02:13:23.757Z,23.92
2017-08-24T02:14:23.959Z,23.89
2017-08-24T02:15:23.829Z,23.92
2017-08-24T02:16:24.169Z,23.90
2017-08-24T02:17:23.897Z,23.96
2017-08-24T02:18:23.944Z,23.82
2017-08-24T02:19:24.022Z,23.84
2017-08-24T02:20:24.200Z,23.93
2017-08-24T02:21:24.047Z,23.86
2017-08-24T02:22:24.384Z,23.93
2017-08-24T02:23:24.163Z,23.86
2017-08-24T02:24:24.197Z,23.78
2017-08-24T02:25:24.183Z,23.72
2017-08-24T02:26:24.227Z,23.75
2017-08-24T02:27:24.256Z,23.77
2017-08-24T02:28:24.290Z,23.78
2017-08-24T02:29:24.675Z,23.86
2017-08-24T02:30:24.367Z,23.93
2017-08-24T02:31:24.407Z,23.89
2017-08-24T02:32:24.429Z,23.97
2017-08-24T02:33:24.485Z,23.99
2017-08-24T02:34:24.501Z,24.04
2017-08-24T02:35:24.601Z,24.06
2017-08-24T02:36:24.884Z,24.12
2017-08-24T02:37:24.618Z,24.11
2017-08-24T02:38:24.643Z,24.19
2017-08-24T02:39:24.680Z,24.24
2017-08-24T02:40:24.727Z,24.23
2017-08-24T02:41:25.005Z,24.31
2017-08-24T02:42:24.789Z,24.37
2017-08-24T02:43:25.133Z,24.36
2017-08-24T02:44:24.871Z,24.34
2017-08-24T02:45:24.903Z,24.46
2017-08-24T02:46:24.932Z,24.42
2017-08-24T02:47:25.017Z,24.46
2017-08-24T02:48:25.032Z,24.46
2017-08-24T02:49:25.045Z,24.51
2017-08-24T02:50:25.382Z,24.52
2017-08-24T02:51:25.117Z,24.56
2017-08-24T02:52:25.195Z,24.53
2017-08-24T02:53:25.182Z,24.63
2017-08-24T02:54:25.216Z,24.60
2017-08-24T02:55:25.262Z,24.63
2017-08-24T02:56:25.290Z,24.64
2017-08-24T02:57:25.624Z,24.56
2017-08-24T02:58:25.483Z,24.59
2017-08-24T02:59:25.398Z,24.59
2017-08-24T03:00:25.431Z,24.59
2017-08-24T03:01:25.470Z,24.67
2017-08-24T03:02:25.504Z,24.71
2017-08-24T03:03:25.539Z,24.59
2017-08-24T03:04:25.927Z,24.59
2017-08-24T03:05:25.618Z,24.71
2017-08-24T03:06:25.649Z,24.74
2017-08-24T03:07:25.683Z,24.68
2017-08-24T03:08:25.722Z,24.74
2017-08-24T03:09:25.807Z,24.61
2017-08-24T03:10:25.793Z,24.63
2017-08-24T03:11:26.150Z,24.67
2017-08-24T03:12:25.859Z,24.56
2017-08-24T03:13:25.895Z,24.64
2017-08-24T03:14:25.935Z,24.60
2017-08-24T03:15:26.073Z,24.64
2017-08-24T03:16:26.006Z,24.63
2017-08-24T03:17:26.043Z,24.63
2017-08-24T03:18:26.378Z,24.60
2017-08-24T03:19:26.111Z,24.59
2017-08-24T03:20:26.401Z,24.59
2017-08-24T03:21:26.193Z,24.55
2017-08-24T03:22:26.223Z,24.60
2017-08-24T03:23:26.261Z,24.66
2017-08-24T03:24:26.295Z,24.59
2017-08-24T03:25:26.633Z,24.56
2017-08-24T03:26:26.414Z,24.46
2017-08-24T03:27:26.417Z,24.61
2017-08-24T03:28:26.440Z,24.48
2017-08-24T03:29:26.634Z,24.48
2017-08-24T03:30:26.553Z,24.60
2017-08-24T03:31:26.544Z,24.45
2017-08-24T03:32:26.876Z,24.52
2017-08-24T03:33:26.617Z,24.49
2017-08-24T03:34:26.649Z,24.48
2017-08-24T03:35:26.738Z,24.46
2017-08-24T03:36:26.718Z,24.49
2017-08-24T03:37:26.768Z,24.48
2017-08-24T03:38:26.797Z,24.52
2017-08-24T03:39:27.146Z,24.60
2017-08-24T03:40:26.877Z,24.56
2017-08-24T03:41:27.231Z,24.52
2017-08-24T03:42:26.931Z,24.51
2017-08-24T03:43:26.971Z,24.49
2017-08-24T03:44:27.063Z,24.55
2017-08-24T03:45:27.065Z,24.59
2017-08-24T03:46:27.381Z,24.60
2017-08-24T03:47:27.114Z,24.48
2017-08-24T03:48:27.157Z,24.48
2017-08-24T03:49:27.300Z,24.45
2017-08-24T03:50:27.223Z,24.49
2017-08-24T03:51:27.280Z,24.48
2017-08-24T03:52:27.613Z,24.56
2017-08-24T03:53:27.324Z,24.51
2017-08-24T03:54:27.380Z,24.49
2017-08-24T03:55:27.525Z,24.51
2017-08-24T03:56:27.434Z,24.45
2017-08-24T03:57:27.480Z,24.45
2017-08-24T03:58:27.804Z,24.42
2017-08-24T03:59:27.767Z,24.42
2017-08-24T04:00:27.603Z,24.42
2017-08-24T04:01:27.612Z,24.42
2017-08-24T04:02:27.644Z,24.45
2017-08-24T04:03:27.697Z,24.37
2017-08-24T04:04:28.129Z,24.45
2017-08-24T04:05:27.828Z,24.44
2017-08-24T04:06:27.792Z,24.44
2017-08-24T04:07:27.850Z,24.37
2017-08-24T04:08:27.909Z,24.34
2017-08-24T04:09:28.034Z,24.31
2017-08-24T04:10:28.244Z,24.34
2017-08-24T04:11:27.968Z,24.31
2017-08-24T04:12:27.998Z,24.37
2017-08-24T04:13:28.097Z,24.36
2017-08-24T04:14:28.080Z,24.42
2017-08-24T04:15:28.111Z,24.39
2017-08-24T04:16:28.441Z,24.37
2017-08-24T04:17:28.182Z,24.41
2017-08-24T04:18:28.269Z,24.39
2017-08-24T04:19:28.248Z,24.39
2017-08-24T04:20:28.286Z,24.31
2017-08-24T04:21:28.327Z,24.36
2017-08-24T04:22:28.661Z,24.30
2017-08-24T04:23:28.497Z,24.33
2017-08-24T04:24:28.427Z,24.23
2017-08-24T04:25:28.474Z,24.29
2017-08-24T04:26:28.496Z,24.30
2017-08-24T04:27:28.542Z,24.26
2017-08-24T04:28:28.869Z,24.26
2017-08-24T04:29:28.732Z,24.24
2017-08-24T04:30:28.644Z,24.27
2017-08-24T04:31:28.682Z,24.29
2017-08-24T04:32:28.713Z,24.36
2017-08-24T04:33:28.746Z,24.39
2017-08-24T04:34:29.135Z,24.36
2017-08-24T04:35:28.868Z,24.46
2017-08-24T04:36:28.854Z,24.39
2017-08-24T04:37:28.899Z,24.37
2017-08-24T04:38:28.946Z,24.48
2017-08-24T04:39:28.971Z,24.53
2017-08-24T04:40:29.301Z,24.48
2017-08-24T04:41:29.115Z,24.52
2017-08-24T04:42:29.080Z,24.48
2017-08-24T04:43:29.104Z,24.51
2017-08-24T04:44:29.143Z,24.45
2017-08-24T04:45:29.186Z,24.60
2017-08-24T04:46:29.722Z,24.53
2017-08-24T04:47:29.311Z,24.51
2017-08-24T04:48:29.281Z,24.63
2017-08-24T04:49:29.326Z,24.60
2017-08-24T04:50:29.356Z,24.59
2017-08-24T04:51:29.391Z,24.63
2017-08-24T04:52:29.777Z,24.60
2017-08-24T04:53:29.462Z,24.59
2017-08-24T04:54:29.545Z,24.67
2017-08-24T04:55:29.569Z,24.61
2017-08-24T04:56:29.575Z,24.59
2017-08-24T04:57:29.610Z,24.60
2017-08-24T04:58:29.942Z,24.52
2017-08-24T04:59:29.729Z,24.59
2017-08-24T05:00:29.710Z,24.49
2017-08-24T05:01:29.747Z,24.49
2017-08-24T05:02:29.791Z,24.45
2017-08-24T05:03:29.817Z,24.51
2017-08-24T05:04:30.303Z,24.45
2017-08-24T05:05:29.889Z,24.53
2017-08-24T05:06:29.923Z,24.48
2017-08-24T05:07:29.969Z,24.51
2017-08-24T05:08:29.995Z,24.48
2017-08-24T05:09:30.037Z,24.49
2017-08-24T05:10:30.566Z,24.46
2017-08-24T05:11:30.328Z,24.51
2017-08-24T05:12:30.137Z,24.44
2017-08-24T05:13:30.176Z,24.48
2017-08-24T05:14:30.212Z,24.41
2017-08-24T05:15:30.252Z,24.48
2017-08-24T05:16:30.681Z,24.48
2017-08-24T05:17:30.339Z,24.44
2017-08-24T05:18:30.362Z,24.45
2017-08-24T05:19:30.391Z,24.41
2017-08-24T05:20:30.584Z,24.44
2017-08-24T05:21:30.461Z,24.48
2017-08-24T05:22:30.493Z,24.48
2017-08-24T05:23:30.835Z,24.45
2017-08-24T05:24:30.576Z,24.44
2017-08-24T05:25:30.663Z,24.46
2017-08-24T05:26:30.692Z,24.45
2017-08-24T05:27:30.678Z,24.49
2017-08-24T05:28:30.763Z,24.45
2017-08-24T05:29:31.049Z,24.42
2017-08-24T05:30:30.781Z,24.36
2017-08-24T05:31:30.875Z,24.39
2017-08-24T05:32:30.899Z,24.49
2017-08-24T05:33:30.886Z,24.48
2017-08-24T05:34:30.931Z,24.46
2017-08-24T05:35:30.957Z,24.37
2017-08-24T05:36:31.455Z,24.42
2017-08-24T05:37:31.028Z,24.42
2017-08-24T05:38:31.072Z,24.41
2017-08-24T05:39:31.116Z,24.45
2017-08-24T05:40:31.144Z,24.42
2017-08-24T05:41:31.181Z,24.45
2017-08-24T05:42:31.365Z,24.42
2017-08-24T05:43:31.543Z,24.45
2017-08-24T05:44:31.277Z,24.42
2017-08-24T05:45:31.314Z,24.42
2017-08-24T05:46:31.501Z,24.42
2017-08-24T05:47:31.385Z,24.42
2017-08-24T05:48:31.423Z,24.42
2017-08-24T05:49:31.759Z,24.44
2017-08-24T05:50:31.518Z,24.46
2017-08-24T05:51:31.530Z,24.45
2017-08-24T05:52:31.745Z,24.48
2017-08-24T05:53:31.603Z,24.45
2017-08-24T05:54:31.650Z,24.46
2017-08-24T05:55:31.973Z,24.44
2017-08-24T05:56:31.917Z,24.45
2017-08-24T05:57:31.763Z,24.44
2017-08-24T05:58:31.776Z,24.44
2017-08-24T05:59:31.867Z,24.44
2017-08-24T06:00:31.849Z,24.44
2017-08-24T06:01:32.022Z,24.46
2017-08-24T06:02:32.221Z,24.42
2017-08-24T06:03:31.962Z,24.42
2017-08-24T06:04:31.992Z,24.46
2017-08-24T06:05:32.026Z,24.49
2017-08-24T06:06:32.062Z,24.46
2017-08-24T06:07:32.205Z,24.49
2017-08-24T06:08:32.141Z,24.56
2017-08-24T06:09:33.292Z,24.48
2017-08-24T06:10:32.225Z,24.56
2017-08-24T06:11:32.306Z,24.49
2017-08-24T06:12:32.281Z,24.53
2017-08-24T06:13:32.416Z,24.59
2017-08-24T06:14:32.373Z,24.63
2017-08-24T06:15:32.691Z,24.60
2017-08-24T06:16:32.473Z,24.68
2017-08-24T06:17:32.471Z,24.67
2017-08-24T06:18:32.499Z,24.75
2017-08-24T06:19:32.566Z,24.74
2017-08-24T06:20:32.578Z,24.68
2017-08-24T06:21:32.904Z,24.77
2017-08-24T06:22:32.644Z,24.75
2017-08-24T06:23:32.682Z,24.82
2017-08-24T06:24:32.712Z,24.83
2017-08-24T06:25:32.747Z,24.84
2017-08-24T06:26:32.834Z,24.89
2017-08-24T06:27:32.833Z,24.90
2017-08-24T06:28:33.164Z,24.93
2017-08-24T06:29:32.891Z,24.94
2017-08-24T06:30:32.934Z,24.94
2017-08-24T06:31:32.974Z,24.97
2017-08-24T06:32:33.305Z,25.02
2017-08-24T06:33:33.045Z,25.01
2017-08-24T06:34:33.380Z,24.99
2017-08-24T06:35:33.113Z,25.09
2017-08-24T06:36:33.166Z,25.11
2017-08-24T06:37:33.234Z,25.12
2017-08-24T06:38:33.224Z,25.11
2017-08-24T06:39:33.265Z,25.17
2017-08-24T06:40:33.593Z,25.11
2017-08-24T06:41:33.331Z,25.16
2017-08-24T06:42:33.421Z,25.19
2017-08-24T06:43:33.918Z,25.17
2017-08-24T06:44:33.452Z,25.20
2017-08-24T06:45:33.480Z,25.26
2017-08-24T06:46:33.814Z,25.26
2017-08-24T06:47:33.551Z,25.24
2017-08-24T06:48:33.689Z,25.30
2017-08-24T06:49:33.623Z,25.31
2017-08-24T06:50:33.661Z,25.35
2017-08-24T06:51:33.699Z,25.34
2017-08-24T06:52:34.543Z,25.45
2017-08-24T06:53:33.773Z,25.41
2017-08-24T06:54:33.917Z,25.38
2017-08-24T06:55:33.847Z,25.42
2017-08-24T06:56:33.887Z,25.39
2017-08-24T06:57:33.921Z,25.44
2017-08-24T06:58:34.262Z,25.45
2017-08-24T06:59:34.003Z,25.57
2017-08-24T07:00:34.081Z,25.51
2017-08-24T07:01:34.068Z,25.49
2017-08-24T07:02:34.108Z,25.59
2017-08-24T07:03:34.296Z,25.56
2017-08-24T07:04:34.194Z,25.59
2017-08-24T07:05:34.530Z,25.60
2017-08-24T07:06:34.252Z,25.59
2017-08-24T07:07:34.294Z,25.64
2017-08-24T07:08:34.332Z,25.60
2017-08-24T07:09:34.412Z,25.66
2017-08-24T07:10:34.409Z,25.69
2017-08-24T07:11:34.740Z,25.72
2017-08-24T07:12:34.524Z,25.75
2017-08-24T07:13:34.513Z,25.78
2017-08-24T07:14:34.600Z,25.66
2017-08-24T07:15:34.591Z,25.78
2017-08-24T07:16:34.632Z,25.75
2017-08-24T07:17:34.966Z,25.79
2017-08-24T07:18:34.707Z,25.75
2017-08-24T07:19:34.735Z,25.72
2017-08-24T07:20:34.824Z,25.79
2017-08-24T07:21:34.809Z,25.72
2017-08-24T07:22:34.850Z,25.83
2017-08-24T07:23:35.187Z,25.83
2017-08-24T07:24:35.071Z,25.82
2017-08-24T07:25:35.163Z,25.83
2017-08-24T07:26:34.997Z,25.94
2017-08-24T07:27:35.034Z,25.97
2017-08-24T07:28:35.072Z,25.94
2017-08-24T07:29:35.409Z,25.93
2017-08-24T07:31:35.236Z,25.91
2017-08-24T07:32:35.252Z,25.97
2017-08-24T07:33:35.259Z,25.97
2017-08-24T07:34:35.299Z,26.03
2017-08-24T07:35:35.633Z,26.03
2017-08-24T07:36:35.373Z,26.01
2017-08-24T07:37:35.469Z,26.03
2017-08-24T07:38:35.497Z,26.03
2017-08-24T07:39:35.481Z,25.98
2017-08-24T07:40:35.524Z,25.97
2017-08-24T07:41:35.855Z,26.04
2017-08-24T07:42:35.598Z,26.11
2017-08-24T07:43:35.750Z,26.06
2017-08-24T07:44:35.667Z,26.09
2017-08-24T07:45:35.706Z,26.13
2017-08-24T07:46:35.743Z,26.09
2017-08-24T07:47:36.082Z,26.13
2017-08-24T07:48:35.819Z,26.20
2017-08-24T07:49:36.159Z,26.16
2017-08-24T07:50:35.902Z,26.20
2017-08-24T07:51:35.931Z,26.17
2017-08-24T07:52:35.980Z,26.19
2017-08-24T07:53:36.312Z,26.17
2017-08-24T07:54:36.049Z,26.17
2017-08-24T07:55:36.844Z,26.27
2017-08-24T07:56:36.138Z,26.29
2017-08-24T07:57:36.154Z,26.21
2017-08-24T07:58:36.193Z,26.27
2017-08-24T07:59:36.537Z,26.28
2017-08-24T08:00:36.279Z,26.19
2017-08-24T08:01:36.387Z,26.24
2017-08-24T08:02:36.343Z,26.23
2017-08-24T08:03:36.384Z,26.17
2017-08-24T08:04:36.429Z,26.19
2017-08-24T08:05:36.766Z,26.27
2017-08-24T08:06:36.498Z,26.32
2017-08-24T08:07:36.732Z,26.27
2017-08-24T08:08:36.567Z,26.32
2017-08-24T08:09:36.610Z,26.31
2017-08-24T08:10:36.647Z,26.29
2017-08-24T08:11:36.984Z,26.36
2017-08-24T08:12:36.728Z,26.31
2017-08-24T08:13:36.959Z,26.31
2017-08-24T08:14:36.798Z,26.31
2017-08-24T08:15:36.835Z,26.32
2017-08-24T08:16:36.873Z,26.35
2017-08-24T08:17:37.210Z,26.44
2017-08-24T08:18:36.956Z,26.46
2017-08-24T08:19:37.134Z,26.39
2017-08-24T08:20:37.026Z,26.46
2017-08-24T08:21:37.059Z,26.50
2017-08-24T08:22:37.102Z,26.44
2017-08-24T08:23:37.438Z,26.51
2017-08-24T08:24:37.169Z,26.53
2017-08-24T08:26:37.497Z,26.53
2017-08-24T08:27:37.304Z,26.59
2017-08-24T08:28:37.326Z,26.54
2017-08-24T08:29:37.663Z,26.54
2017-08-24T08:30:37.399Z,26.59
2017-08-24T08:31:37.437Z,26.65
2017-08-24T08:32:37.636Z,26.68
2017-08-24T08:33:37.516Z,26.65
2017-08-24T08:34:37.557Z,26.60
2017-08-24T08:35:37.891Z,26.60
2017-08-24T08:36:37.625Z,26.60
2017-08-24T08:37:37.669Z,26.64
2017-08-24T08:38:37.756Z,26.59
2017-08-24T08:39:37.742Z,26.73
2017-08-24T08:40:37.781Z,26.73
2017-08-24T08:41:38.118Z,26.72
2017-08-24T08:42:37.864Z,26.73
2017-08-24T08:43:37.900Z,26.75
2017-08-24T08:44:38.074Z,26.71
2017-08-24T08:45:37.972Z,26.81
2017-08-24T08:46:38.015Z,26.78
2017-08-24T08:47:38.358Z,26.87
2017-08-24T08:48:38.086Z,26.79
2017-08-24T08:49:38.123Z,26.79
2017-08-24T08:50:38.413Z,26.84
2017-08-24T08:51:38.207Z,26.84
2017-08-24T08:52:38.238Z,26.88
2017-08-24T08:53:38.578Z,26.90
2017-08-24T08:54:38.318Z,26.90
2017-08-24T08:55:38.355Z,26.86
2017-08-24T08:56:38.643Z,26.84
2017-08-24T08:57:38.433Z,26.86
2017-08-24T08:58:38.556Z,26.94
2017-08-24T08:59:38.815Z,26.81
2017-08-24T09:00:38.549Z,26.83
2017-08-24T09:01:38.588Z,26.90
2017-08-24T09:02:38.828Z,26.91
2017-08-24T09:03:38.665Z,26.90
2017-08-24T09:04:38.699Z,26.87
2017-08-24T09:05:39.040Z,26.91
2017-08-24T09:06:38.776Z,26.88
2017-08-24T09:07:38.819Z,26.88
2017-08-24T09:08:38.901Z,26.91
2017-08-24T09:09:38.897Z,26.94
2017-08-24T09:10:38.931Z,26.98
2017-08-24T09:11:39.272Z,26.94
2017-08-24T09:12:39.028Z,27.01
2017-08-24T09:14:39.319Z,27.02
2017-08-24T09:15:39.126Z,27.05
2017-08-24T09:16:39.160Z,26.97
2017-08-24T09:17:39.498Z,26.94
2017-08-24T09:18:39.239Z,26.97
2017-08-24T09:19:39.277Z,26.97
2017-08-24T09:20:39.565Z,26.93
2017-08-24T09:21:39.358Z,26.98
2017-08-24T09:23:39.751Z,26.98
2017-08-24T09:24:39.511Z,26.98
2017-08-24T09:25:39.509Z,27.02
2017-08-24T09:26:39.655Z,27.05
2017-08-24T09:27:39.603Z,27.03
2017-08-24T09:28:39.626Z,27.03
2017-08-24T09:29:39.973Z,27.03
2017-08-24T09:30:39.711Z,27.01
2017-08-24T09:31:39.744Z,27.02
2017-08-24T09:32:39.982Z,26.98
2017-08-24T09:33:39.818Z,27.03
2017-08-24T09:34:39.871Z,27.11
2017-08-24T09:35:40.201Z,27.05
2017-08-24T09:36:39.942Z,27.12
2017-08-24T09:37:39.979Z,27.02
2017-08-24T09:38:40.073Z,27.06
2017-08-24T09:39:40.057Z,27.11
2017-08-24T09:40:40.096Z,27.08
2017-08-24T09:41:40.440Z,27.20
2017-08-24T09:42:40.187Z,27.21
2017-08-24T09:43:40.518Z,27.20
2017-08-24T09:44:40.254Z,27.08
2017-08-24T09:45:40.286Z,27.15
2017-08-24T09:46:40.331Z,27.23
2017-08-24T09:47:40.664Z,27.20
2017-08-24T09:48:40.402Z,27.13
2017-08-24T09:49:40.689Z,27.16
2017-08-24T09:50:40.483Z,27.13
2017-08-24T09:51:40.521Z,27.16
2017-08-24T09:52:40.608Z,27.13
2017-08-24T09:53:40.907Z,27.23
2017-08-24T09:54:40.642Z,27.18
2017-08-24T09:55:40.829Z,27.20
2017-08-24T09:56:40.714Z,27.23
2017-08-24T09:57:40.756Z,27.18
2017-08-24T09:58:40.807Z,27.24
2017-08-24T09:59:41.131Z,27.21
2017-08-24T10:00:40.872Z,27.15
2017-08-24T10:01:40.956Z,27.18
2017-08-24T10:02:40.955Z,27.27
2017-08-24T10:03:40.984Z,27.27
2017-08-24T10:04:41.032Z,27.21
2017-08-24T10:05:41.363Z,27.21
2017-08-24T10:06:41.104Z,27.25
2017-08-24T10:07:41.387Z,27.33
2017-08-24T10:08:41.177Z,27.28
2017-08-24T10:09:41.216Z,27.24
2017-08-24T10:11:41.596Z,27.30
2017-08-24T10:12:41.341Z,27.27
2017-08-24T10:13:41.526Z,27.28
2017-08-24T10:14:41.415Z,27.25
2017-08-24T10:15:41.457Z,27.30
2017-08-24T10:16:41.502Z,27.35
2017-08-24T10:17:41.831Z,27.31
2017-08-24T10:18:41.571Z,27.31
2017-08-24T10:19:41.772Z,27.31
2017-08-24T10:21:41.682Z,27.34
2017-08-24T10:22:41.728Z,27.30
2017-08-24T10:23:42.122Z,27.38
2017-08-24T10:24:41.807Z,27.35
2017-08-24T10:25:42.105Z,27.40
2017-08-24T10:26:41.879Z,27.27
2017-08-24T10:27:41.923Z,27.30
2017-08-24T10:28:42.003Z,27.31
2017-08-24T10:29:42.340Z,27.28
2017-08-24T10:30:42.166Z,27.28
2017-08-24T10:31:42.285Z,27.38
2017-08-24T10:32:42.122Z,27.34
2017-08-24T10:33:42.153Z,27.38
2017-08-24T10:34:42.199Z,27.33
2017-08-24T10:35:42.534Z,27.25
2017-08-24T10:36:42.277Z,27.28
2017-08-24T10:37:42.360Z,27.42
2017-08-24T10:38:42.347Z,27.27
2017-08-24T10:39:42.388Z,27.30
2017-08-24T10:40:42.443Z,27.34
2017-08-24T10:41:42.870Z,27.24
2017-08-24T10:42:42.511Z,27.27
2017-08-24T10:43:42.850Z,27.45
2017-08-24T10:44:42.584Z,27.30
2017-08-24T10:45:42.626Z,27.38
2017-08-24T10:46:42.667Z,27.30
2017-08-24T10:47:43.009Z,27.28
2017-08-24T10:48:42.737Z,27.39
2017-08-24T10:49:42.926Z,27.40
2017-08-24T10:50:42.818Z,27.35
2017-08-24T10:51:42.856Z,27.24
2017-08-24T10:52:42.900Z,27.34
2017-08-24T10:53:43.240Z,27.28
2017-08-24T10:54:42.975Z,27.31
2017-08-24T10:55:43.112Z,27.35
2017-08-24T10:56:43.055Z,27.28
2017-08-24T10:57:43.105Z,27.39
2017-08-24T10:58:43.133Z,27.31
2017-08-24T10:59:43.467Z,27.34
2017-08-24T11:00:43.258Z,27.30
2017-08-24T11:01:43.316Z,27.38
2017-08-24T11:02:43.291Z,27.27
2017-08-24T11:03:43.327Z,27.34
2017-08-24T11:04:43.367Z,27.27
2017-08-24T11:05:43.712Z,27.28
2017-08-24T11:06:43.557Z,27.28
2017-08-24T11:07:43.498Z,27.24
2017-08-24T11:08:43.524Z,27.27
2017-08-24T11:09:43.563Z,27.34
2017-08-24T11:10:43.607Z,27.34
2017-08-24T11:11:43.961Z,27.24
2017-08-24T11:12:43.837Z,27.34
2017-08-24T11:13:43.721Z,27.24
2017-08-24T11:14:43.751Z,27.27
2017-08-24T11:15:43.802Z,27.40
2017-08-24T11:16:43.836Z,27.35
2017-08-24T11:17:43.875Z,27.28
2017-08-24T11:18:44.329Z,27.40
2017-08-24T11:19:43.955Z,27.35
2017-08-24T11:20:43.992Z,27.34
2017-08-24T11:21:44.043Z,27.34
2017-08-24T11:22:44.082Z,27.40
2017-08-24T11:23:44.107Z,27.43
2017-08-24T11:24:44.445Z,27.40
2017-08-24T11:25:44.188Z,27.48
2017-08-24T11:26:44.230Z,27.35
2017-08-24T11:27:44.262Z,27.39
2017-08-24T11:28:44.305Z,27.45
2017-08-24T11:29:44.342Z,27.40
2017-08-24T11:30:44.737Z,27.39
2017-08-24T11:31:44.431Z,27.38
2017-08-24T11:32:44.462Z,27.46
2017-08-24T11:33:44.511Z,27.46
2017-08-24T11:34:44.548Z,27.35
2017-08-24T11:35:44.832Z,27.48
2017-08-24T11:36:45.018Z,27.40
2017-08-24T11:37:44.660Z,27.43
2017-08-24T11:38:44.705Z,27.46
2017-08-24T11:39:44.740Z,27.48
2017-08-24T11:40:44.774Z,27.43
2017-08-24T11:42:45.299Z,27.43
2017-08-24T11:43:44.906Z,27.43
2017-08-24T11:44:44.929Z,27.43
2017-08-24T11:45:44.972Z,27.46
2017-08-24T11:46:45.078Z,27.48
2017-08-24T11:47:45.057Z,27.43
2017-08-24T11:48:45.645Z,27.49
2017-08-24T11:49:45.130Z,27.48
2017-08-24T11:50:45.171Z,27.48
2017-08-24T11:51:45.204Z,27.48
2017-08-24T11:52:45.253Z,27.52
2017-08-24T11:53:45.283Z,27.43
2017-08-24T11:54:45.724Z,27.48
2017-08-24T11:55:45.360Z,27.46
2017-08-24T11:56:45.423Z,27.43
2017-08-24T11:57:45.441Z,27.52
2017-08-24T11:58:45.484Z,27.48
2017-08-24T11:59:45.517Z,27.43
2017-08-24T12:00:45.956Z,27.46
2017-08-24T12:01:45.617Z,27.46
2017-08-24T12:02:45.638Z,27.50
2017-08-24T12:03:45.674Z,27.48
2017-08-24T12:04:45.720Z,27.48
2017-08-24T12:05:45.755Z,27.49
2017-08-24T12:06:46.393Z,27.48
2017-08-24T12:07:45.835Z,27.50
2017-08-24T12:08:45.872Z,27.63
2017-08-24T12:09:45.917Z,27.50
2017-08-24T12:10:45.964Z,27.50
2017-08-24T12:11:45.990Z,27.53
2017-08-24T12:12:46.567Z,27.50
2017-08-24T12:13:46.070Z,27.55
2017-08-24T12:14:46.118Z,27.58
2017-08-24T12:15:46.153Z,27.55
2017-08-24T12:16:46.185Z,27.55
2017-08-24T12:17:46.238Z,27.52
2017-08-24T12:18:46.926Z,27.48
2017-08-24T12:19:46.307Z,27.48
2017-08-24T12:20:46.348Z,27.55
2017-08-24T12:21:46.381Z,27.59
2017-08-24T12:22:46.419Z,27.52
2017-08-24T12:23:46.464Z,27.58
2017-08-24T12:24:47.069Z,27.61
2017-08-24T12:25:46.547Z,27.52
2017-08-24T12:26:46.591Z,27.59
2017-08-24T12:27:46.640Z,27.52
2017-08-24T12:28:46.665Z,27.52
2017-08-24T12:29:46.769Z,27.61
2017-08-24T12:30:47.086Z,27.52
2017-08-24T12:31:46.782Z,27.53
2017-08-24T12:32:46.819Z,27.52
2017-08-24T12:33:46.854Z,27.62
2017-08-24T12:34:46.904Z,27.52
2017-08-24T12:35:46.936Z,27.65
2017-08-24T12:36:47.417Z,27.53
2017-08-24T12:37:47.018Z,27.59
2017-08-24T12:38:47.102Z,27.62
2017-08-24T12:39:47.085Z,27.63
2017-08-24T12:40:47.175Z,27.59
2017-08-24T12:41:47.202Z,27.63
2017-08-24T12:42:47.771Z,27.65
2017-08-24T12:43:47.246Z,27.66
2017-08-24T12:44:47.282Z,27.59
2017-08-24T12:45:47.323Z,27.72
2017-08-24T12:46:47.376Z,27.62
2017-08-24T12:47:47.404Z,27.69
2017-08-24T12:48:47.738Z,27.66
2017-08-24T12:49:47.481Z,27.69
2017-08-24T12:50:47.524Z,27.68
2017-08-24T12:51:47.558Z,27.68
2017-08-24T12:52:47.608Z,27.72
2017-08-24T12:53:47.651Z,27.76
2017-08-24T12:54:48.127Z,27.77
2017-08-24T12:55:47.718Z,27.77
2017-08-24T12:56:47.759Z,27.78
2017-08-24T12:57:47.795Z,27.77
2017-08-24T12:58:47.842Z,27.81
2017-08-24T12:59:47.879Z,27.71